sensor_id;sensor_type;location;lat;lon;timestamp;P1;durP1;ratioP1;P2;durP2;ratioP2
62911;SDS011;49111;51.028;4.218;2023-04-09T00:00:09;42.70;;;27.13;;
62911;SDS011;49111;51.028;4.218;2023-04-09T00:02:39;47.47;;;28.30;;
62911;SDS011;49111;51.028;4.218;2023-04-09T00:05:05;45.42;;;28.15;;
62911;SDS011;49111;51.028;4.218;2023-04-09T00:07:32;45.58;;;27.80;;
62911;SDS011;49111;51.028;4.218;2023-04-09T00:09:58;46.45;;;28.17;;
62911;SDS011;49111;51.028;4.218;2023-04-09T00:12:24;40.38;;;24.42;;
62911;SDS011;49111;51.028;4.218;2023-04-09T00:14:50;41.45;;;26.52;;
62911;SDS011;49111;51.028;4.218;2023-04-09T00:17:16;36.97;;;24.88;;
62911;SDS011;49111;51.028;4.218;2023-04-09T00:19:42;39.63;;;26.08;;
62911;SDS011;49111;51.028;4.218;2023-04-09T00:22:07;38.20;;;25.00;;
62911;SDS011;49111;51.028;4.218;2023-04-09T00:24:33;39.97;;;24.35;;
62911;SDS011;49111;51.028;4.218;2023-04-09T00:26:59;35.22;;;22.58;;
62911;SDS011;49111;51.028;4.218;2023-04-09T00:29:25;38.60;;;24.20;;
62911;SDS011;49111;51.028;4.218;2023-04-09T00:31:51;41.05;;;23.90;;
62911;SDS011;49111;51.028;4.218;2023-04-09T00:34:17;36.88;;;24.33;;
62911;SDS011;49111;51.028;4.218;2023-04-09T00:36:43;33.78;;;22.80;;
62911;SDS011;49111;51.028;4.218;2023-04-09T00:39:09;38.33;;;23.63;;
62911;SDS011;49111;51.028;4.218;2023-04-09T00:41:35;37.80;;;23.33;;
62911;SDS011;49111;51.028;4.218;2023-04-09T00:44:00;36.47;;;24.83;;
62911;SDS011;49111;51.028;4.218;2023-04-09T00:46:27;33.50;;;21.75;;
62911;SDS011;49111;51.028;4.218;2023-04-09T00:48:55;34.58;;;22.63;;
62911;SDS011;49111;51.028;4.218;2023-04-09T00:51:21;33.65;;;21.23;;
62911;SDS011;49111;51.028;4.218;2023-04-09T00:53:47;32.15;;;22.02;;
62911;SDS011;49111;51.028;4.218;2023-04-09T00:56:13;33.72;;;20.15;;
62911;SDS011;49111;51.028;4.218;2023-04-09T00:58:40;30.77;;;19.48;;
62911;SDS011;49111;51.028;4.218;2023-04-09T01:01:06;31.40;;;20.73;;
62911;SDS011;49111;51.028;4.218;2023-04-09T01:03:32;31.75;;;19.20;;
62911;SDS011;49111;51.028;4.218;2023-04-09T01:14:26;26.35;;;17.73;;
62911;SDS011;49111;51.028;4.218;2023-04-09T01:17:08;33.88;;;19.05;;
62911;SDS011;49111;51.028;4.218;2023-04-09T01:20:04;30.05;;;18.35;;
62911;SDS011;49111;51.028;4.218;2023-04-09T01:22:39;28.67;;;18.52;;
62911;SDS011;49111;51.028;4.218;2023-04-09T01:28:34;30.63;;;18.27;;
62911;SDS011;49111;51.028;4.218;2023-04-09T01:31:12;26.35;;;18.23;;
62911;SDS011;49111;51.028;4.218;2023-04-09T01:33:39;26.50;;;16.52;;
62911;SDS011;49111;51.028;4.218;2023-04-09T01:36:06;28.05;;;17.75;;
62911;SDS011;49111;51.028;4.218;2023-04-09T01:38:34;24.30;;;15.98;;
62911;SDS011;49111;51.028;4.218;2023-04-09T01:41:02;28.85;;;18.13;;
62911;SDS011;49111;51.028;4.218;2023-04-09T01:43:29;25.50;;;16.63;;
62911;SDS011;49111;51.028;4.218;2023-04-09T01:45:59;25.15;;;16.48;;
62911;SDS011;49111;51.028;4.218;2023-04-09T01:48:28;25.98;;;16.75;;
62911;SDS011;49111;51.028;4.218;2023-04-09T01:50:56;32.13;;;16.88;;
62911;SDS011;49111;51.028;4.218;2023-04-09T01:53:23;27.10;;;17.33;;
62911;SDS011;49111;51.028;4.218;2023-04-09T01:55:53;27.45;;;16.45;;
62911;SDS011;49111;51.028;4.218;2023-04-09T01:58:23;30.33;;;17.67;;
62911;SDS011;49111;51.028;4.218;2023-04-09T02:00:50;25.00;;;16.63;;
62911;SDS011;49111;51.028;4.218;2023-04-09T02:03:25;25.65;;;16.75;;
62911;SDS011;49111;51.028;4.218;2023-04-09T02:06:00;26.70;;;16.40;;
62911;SDS011;49111;51.028;4.218;2023-04-09T02:08:34;25.40;;;16.27;;
62911;SDS011;49111;51.028;4.218;2023-04-09T02:11:02;26.65;;;18.15;;
62911;SDS011;49111;51.028;4.218;2023-04-09T02:13:31;24.23;;;16.25;;
62911;SDS011;49111;51.028;4.218;2023-04-09T02:15:59;27.30;;;16.65;;
62911;SDS011;49111;51.028;4.218;2023-04-09T02:18:28;28.10;;;16.00;;
62911;SDS011;49111;51.028;4.218;2023-04-09T02:20:55;28.73;;;17.13;;
62911;SDS011;49111;51.028;4.218;2023-04-09T02:23:23;27.95;;;16.83;;
62911;SDS011;49111;51.028;4.218;2023-04-09T02:25:49;29.90;;;15.95;;
62911;SDS011;49111;51.028;4.218;2023-04-09T02:28:18;30.00;;;16.52;;
62911;SDS011;49111;51.028;4.218;2023-04-09T02:30:44;25.52;;;17.58;;
62911;SDS011;49111;51.028;4.218;2023-04-09T02:33:10;23.30;;;15.25;;
62911;SDS011;49111;51.028;4.218;2023-04-09T02:35:36;27.25;;;17.30;;
62911;SDS011;49111;51.028;4.218;2023-04-09T02:38:02;25.35;;;16.50;;
62911;SDS011;49111;51.028;4.218;2023-04-09T02:40:28;24.75;;;16.23;;
62911;SDS011;49111;51.028;4.218;2023-04-09T02:42:54;28.92;;;17.02;;
62911;SDS011;49111;51.028;4.218;2023-04-09T02:45:20;24.98;;;15.43;;
62911;SDS011;49111;51.028;4.218;2023-04-09T02:47:45;24.55;;;15.32;;
62911;SDS011;49111;51.028;4.218;2023-04-09T02:50:12;20.02;;;14.10;;
62911;SDS011;49111;51.028;4.218;2023-04-09T02:52:47;28.38;;;15.95;;
62911;SDS011;49111;51.028;4.218;2023-04-09T02:55:15;24.13;;;14.95;;
62911;SDS011;49111;51.028;4.218;2023-04-09T02:57:42;27.42;;;16.73;;
62911;SDS011;49111;51.028;4.218;2023-04-09T03:00:08;26.90;;;17.38;;
62911;SDS011;49111;51.028;4.218;2023-04-09T03:02:34;26.38;;;16.73;;
62911;SDS011;49111;51.028;4.218;2023-04-09T03:05:00;23.08;;;16.13;;
62911;SDS011;49111;51.028;4.218;2023-04-09T03:07:26;23.88;;;16.80;;
62911;SDS011;49111;51.028;4.218;2023-04-09T03:09:52;24.92;;;16.88;;
62911;SDS011;49111;51.028;4.218;2023-04-09T03:12:18;30.08;;;18.25;;
62911;SDS011;49111;51.028;4.218;2023-04-09T03:14:43;26.60;;;16.83;;
62911;SDS011;49111;51.028;4.218;2023-04-09T03:17:10;26.45;;;16.77;;
62911;SDS011;49111;51.028;4.218;2023-04-09T03:19:36;25.63;;;17.63;;
62911;SDS011;49111;51.028;4.218;2023-04-09T03:22:02;27.52;;;17.60;;
62911;SDS011;49111;51.028;4.218;2023-04-09T03:24:30;27.50;;;16.33;;
62911;SDS011;49111;51.028;4.218;2023-04-09T03:27:00;25.58;;;15.52;;
62911;SDS011;49111;51.028;4.218;2023-04-09T03:29:26;22.92;;;15.93;;
62911;SDS011;49111;51.028;4.218;2023-04-09T03:31:52;24.65;;;16.08;;
62911;SDS011;49111;51.028;4.218;2023-04-09T03:34:18;25.88;;;16.30;;
62911;SDS011;49111;51.028;4.218;2023-04-09T03:36:49;25.13;;;15.15;;
62911;SDS011;49111;51.028;4.218;2023-04-09T03:39:27;26.20;;;17.35;;
62911;SDS011;49111;51.028;4.218;2023-04-09T03:41:55;28.70;;;16.95;;
62911;SDS011;49111;51.028;4.218;2023-04-09T03:44:23;24.98;;;17.55;;
62911;SDS011;49111;51.028;4.218;2023-04-09T03:46:57;28.02;;;16.83;;
62911;SDS011;49111;51.028;4.218;2023-04-09T03:49:24;27.90;;;17.70;;
62911;SDS011;49111;51.028;4.218;2023-04-09T03:51:52;30.45;;;16.73;;
62911;SDS011;49111;51.028;4.218;2023-04-09T03:54:18;26.88;;;17.35;;
62911;SDS011;49111;51.028;4.218;2023-04-09T03:56:44;25.48;;;16.85;;
62911;SDS011;49111;51.028;4.218;2023-04-09T03:59:12;26.60;;;17.20;;
62911;SDS011;49111;51.028;4.218;2023-04-09T04:01:42;31.13;;;18.65;;
62911;SDS011;49111;51.028;4.218;2023-04-09T04:04:08;26.33;;;17.38;;
62911;SDS011;49111;51.028;4.218;2023-04-09T04:06:39;27.63;;;17.80;;
62911;SDS011;49111;51.028;4.218;2023-04-09T04:09:21;30.80;;;18.25;;
62911;SDS011;49111;51.028;4.218;2023-04-09T04:12:00;34.25;;;19.77;;
62911;SDS011;49111;51.028;4.218;2023-04-09T04:14:46;35.70;;;20.58;;
62911;SDS011;49111;51.028;4.218;2023-04-09T04:17:21;43.47;;;24.25;;
62911;SDS011;49111;51.028;4.218;2023-04-09T04:19:49;38.38;;;24.38;;
62911;SDS011;49111;51.028;4.218;2023-04-09T04:22:15;54.45;;;29.92;;
62911;SDS011;49111;51.028;4.218;2023-04-09T04:24:44;69.47;;;36.20;;
62911;SDS011;49111;51.028;4.218;2023-04-09T04:27:13;71.28;;;36.75;;
62911;SDS011;49111;51.028;4.218;2023-04-09T04:29:39;59.83;;;34.72;;
62911;SDS011;49111;51.028;4.218;2023-04-09T04:32:18;61.65;;;35.55;;
62911;SDS011;49111;51.028;4.218;2023-04-09T04:34:47;55.40;;;29.40;;
62911;SDS011;49111;51.028;4.218;2023-04-09T04:37:21;56.10;;;28.85;;
62911;SDS011;49111;51.028;4.218;2023-04-09T04:39:49;35.70;;;21.50;;
62911;SDS011;49111;51.028;4.218;2023-04-09T04:42:15;39.40;;;22.45;;
62911;SDS011;49111;51.028;4.218;2023-04-09T04:44:43;36.60;;;20.02;;
62911;SDS011;49111;51.028;4.218;2023-04-09T04:47:16;43.88;;;24.15;;
62911;SDS011;49111;51.028;4.218;2023-04-09T04:49:42;47.97;;;23.90;;
62911;SDS011;49111;51.028;4.218;2023-04-09T04:52:08;38.47;;;25.00;;
62911;SDS011;49111;51.028;4.218;2023-04-09T04:54:37;37.00;;;22.08;;
62911;SDS011;49111;51.028;4.218;2023-04-09T04:57:03;36.10;;;20.73;;
62911;SDS011;49111;51.028;4.218;2023-04-09T04:59:35;35.72;;;22.52;;
62911;SDS011;49111;51.028;4.218;2023-04-09T05:02:04;33.63;;;19.50;;
62911;SDS011;49111;51.028;4.218;2023-04-09T05:04:38;35.92;;;20.80;;
62911;SDS011;49111;51.028;4.218;2023-04-09T05:07:07;33.08;;;19.15;;
62911;SDS011;49111;51.028;4.218;2023-04-09T05:09:35;29.20;;;18.70;;
62911;SDS011;49111;51.028;4.218;2023-04-09T05:12:05;35.83;;;19.08;;
62911;SDS011;49111;51.028;4.218;2023-04-09T05:14:31;36.60;;;19.75;;
62911;SDS011;49111;51.028;4.218;2023-04-09T05:16:57;39.15;;;22.08;;
62911;SDS011;49111;51.028;4.218;2023-04-09T05:19:27;34.40;;;21.98;;
62911;SDS011;49111;51.028;4.218;2023-04-09T05:21:58;31.45;;;19.05;;
62911;SDS011;49111;51.028;4.218;2023-04-09T05:24:24;31.92;;;19.48;;
62911;SDS011;49111;51.028;4.218;2023-04-09T05:26:50;35.90;;;21.17;;
62911;SDS011;49111;51.028;4.218;2023-04-09T05:29:16;34.05;;;19.25;;
62911;SDS011;49111;51.028;4.218;2023-04-09T05:31:42;31.88;;;19.55;;
62911;SDS011;49111;51.028;4.218;2023-04-09T05:34:18;27.92;;;16.73;;
62911;SDS011;49111;51.028;4.218;2023-04-09T05:36:48;27.13;;;17.90;;
62911;SDS011;49111;51.028;4.218;2023-04-09T05:39:15;28.30;;;16.15;;
62911;SDS011;49111;51.028;4.218;2023-04-09T05:41:42;26.88;;;16.40;;
62911;SDS011;49111;51.028;4.218;2023-04-09T05:44:23;25.02;;;16.33;;
62911;SDS011;49111;51.028;4.218;2023-04-09T05:46:54;23.63;;;14.73;;
62911;SDS011;49111;51.028;4.218;2023-04-09T05:49:26;27.55;;;14.43;;
62911;SDS011;49111;51.028;4.218;2023-04-09T05:51:54;25.88;;;15.57;;
62911;SDS011;49111;51.028;4.218;2023-04-09T05:54:24;26.63;;;16.92;;
62911;SDS011;49111;51.028;4.218;2023-04-09T05:56:50;29.88;;;17.67;;
62911;SDS011;49111;51.028;4.218;2023-04-09T05:59:17;24.95;;;15.93;;
62911;SDS011;49111;51.028;4.218;2023-04-09T06:01:42;30.05;;;17.80;;
62911;SDS011;49111;51.028;4.218;2023-04-09T06:04:08;29.95;;;17.67;;
62911;SDS011;49111;51.028;4.218;2023-04-09T06:06:36;32.03;;;18.55;;
62911;SDS011;49111;51.028;4.218;2023-04-09T06:09:02;32.58;;;18.15;;
62911;SDS011;49111;51.028;4.218;2023-04-09T06:11:29;26.48;;;17.60;;
62911;SDS011;49111;51.028;4.218;2023-04-09T06:13:55;35.25;;;19.17;;
62911;SDS011;49111;51.028;4.218;2023-04-09T06:16:21;34.20;;;18.42;;
62911;SDS011;49111;51.028;4.218;2023-04-09T06:18:47;32.40;;;19.73;;
62911;SDS011;49111;51.028;4.218;2023-04-09T06:21:15;44.72;;;26.08;;
62911;SDS011;49111;51.028;4.218;2023-04-09T06:23:41;36.85;;;23.35;;
62911;SDS011;49111;51.028;4.218;2023-04-09T06:26:07;34.83;;;21.00;;
62911;SDS011;49111;51.028;4.218;2023-04-09T06:28:33;47.17;;;25.10;;
62911;SDS011;49111;51.028;4.218;2023-04-09T06:31:00;43.53;;;24.60;;
62911;SDS011;49111;51.028;4.218;2023-04-09T06:33:26;42.78;;;25.77;;
62911;SDS011;49111;51.028;4.218;2023-04-09T06:35:52;43.65;;;25.52;;
62911;SDS011;49111;51.028;4.218;2023-04-09T06:38:24;48.05;;;30.00;;
62911;SDS011;49111;51.028;4.218;2023-04-09T06:40:51;52.15;;;32.50;;
62911;SDS011;49111;51.028;4.218;2023-04-09T06:43:18;43.00;;;28.98;;
62911;SDS011;49111;51.028;4.218;2023-04-09T06:45:48;41.75;;;27.13;;
62911;SDS011;49111;51.028;4.218;2023-04-09T06:48:14;46.17;;;28.77;;
62911;SDS011;49111;51.028;4.218;2023-04-09T06:50:40;46.85;;;29.33;;
62911;SDS011;49111;51.028;4.218;2023-04-09T06:53:06;46.42;;;28.83;;
62911;SDS011;49111;51.028;4.218;2023-04-09T06:55:31;40.95;;;26.13;;
62911;SDS011;49111;51.028;4.218;2023-04-09T06:57:57;54.40;;;31.15;;
62911;SDS011;49111;51.028;4.218;2023-04-09T07:00:23;56.78;;;33.25;;
62911;SDS011;49111;51.028;4.218;2023-04-09T07:02:50;74.70;;;40.75;;
62911;SDS011;49111;51.028;4.218;2023-04-09T07:05:17;63.90;;;36.30;;
62911;SDS011;49111;51.028;4.218;2023-04-09T07:07:43;56.95;;;34.38;;
62911;SDS011;49111;51.028;4.218;2023-04-09T07:10:09;67.85;;;36.00;;
62911;SDS011;49111;51.028;4.218;2023-04-09T07:12:35;58.58;;;34.00;;
62911;SDS011;49111;51.028;4.218;2023-04-09T07:15:02;57.15;;;34.33;;
62911;SDS011;49111;51.028;4.218;2023-04-09T07:17:30;59.55;;;33.42;;
62911;SDS011;49111;51.028;4.218;2023-04-09T07:19:56;59.05;;;32.53;;
62911;SDS011;49111;51.028;4.218;2023-04-09T07:22:25;58.90;;;33.58;;
62911;SDS011;49111;51.028;4.218;2023-04-09T07:24:53;61.83;;;32.83;;
62911;SDS011;49111;51.028;4.218;2023-04-09T07:27:19;59.90;;;34.65;;
62911;SDS011;49111;51.028;4.218;2023-04-09T07:29:46;57.67;;;31.08;;
62911;SDS011;49111;51.028;4.218;2023-04-09T07:32:12;57.08;;;31.27;;
62911;SDS011;49111;51.028;4.218;2023-04-09T07:34:38;67.95;;;39.92;;
62911;SDS011;49111;51.028;4.218;2023-04-09T07:37:04;53.17;;;31.48;;
62911;SDS011;49111;51.028;4.218;2023-04-09T07:39:30;58.80;;;36.65;;
62911;SDS011;49111;51.028;4.218;2023-04-09T07:42:02;55.92;;;31.02;;
62911;SDS011;49111;51.028;4.218;2023-04-09T07:47:01;52.90;;;28.45;;
62911;SDS011;49111;51.028;4.218;2023-04-09T07:49:28;54.83;;;32.38;;
62911;SDS011;49111;51.028;4.218;2023-04-09T07:51:55;58.80;;;34.55;;
62911;SDS011;49111;51.028;4.218;2023-04-09T07:54:21;46.97;;;26.77;;
62911;SDS011;49111;51.028;4.218;2023-04-09T07:56:47;53.70;;;29.17;;
62911;SDS011;49111;51.028;4.218;2023-04-09T07:59:13;55.97;;;31.80;;
62911;SDS011;49111;51.028;4.218;2023-04-09T08:01:42;49.70;;;29.40;;
62911;SDS011;49111;51.028;4.218;2023-04-09T08:04:08;51.60;;;28.95;;
62911;SDS011;49111;51.028;4.218;2023-04-09T08:06:35;49.03;;;29.58;;
62911;SDS011;49111;51.028;4.218;2023-04-09T08:09:01;53.10;;;28.58;;
62911;SDS011;49111;51.028;4.218;2023-04-09T08:11:27;47.70;;;27.67;;
62911;SDS011;49111;51.028;4.218;2023-04-09T08:13:53;53.80;;;30.77;;
62911;SDS011;49111;51.028;4.218;2023-04-09T08:16:20;51.55;;;28.98;;
62911;SDS011;49111;51.028;4.218;2023-04-09T08:18:47;48.03;;;28.10;;
62911;SDS011;49111;51.028;4.218;2023-04-09T08:21:14;49.08;;;27.73;;
62911;SDS011;49111;51.028;4.218;2023-04-09T08:23:40;52.80;;;30.42;;
62911;SDS011;49111;51.028;4.218;2023-04-09T08:26:06;49.55;;;26.75;;
62911;SDS011;49111;51.028;4.218;2023-04-09T08:28:32;47.08;;;26.70;;
62911;SDS011;49111;51.028;4.218;2023-04-09T08:30:58;52.40;;;32.35;;
62911;SDS011;49111;51.028;4.218;2023-04-09T08:33:24;50.10;;;29.65;;
62911;SDS011;49111;51.028;4.218;2023-04-09T08:35:50;46.47;;;27.77;;
62911;SDS011;49111;51.028;4.218;2023-04-09T08:38:17;50.13;;;26.77;;
62911;SDS011;49111;51.028;4.218;2023-04-09T08:40:43;45.40;;;23.98;;
62911;SDS011;49111;51.028;4.218;2023-04-09T08:43:09;46.22;;;27.27;;
62911;SDS011;49111;51.028;4.218;2023-04-09T08:45:40;45.17;;;25.38;;
62911;SDS011;49111;51.028;4.218;2023-04-09T08:48:10;43.25;;;26.30;;
62911;SDS011;49111;51.028;4.218;2023-04-09T08:50:37;47.70;;;25.88;;
62911;SDS011;49111;51.028;4.218;2023-04-09T08:53:04;46.22;;;25.08;;
62911;SDS011;49111;51.028;4.218;2023-04-09T08:55:32;44.97;;;25.70;;
62911;SDS011;49111;51.028;4.218;2023-04-09T08:58:04;44.55;;;25.52;;
62911;SDS011;49111;51.028;4.218;2023-04-09T09:00:35;47.10;;;26.17;;
62911;SDS011;49111;51.028;4.218;2023-04-09T09:03:04;40.22;;;26.05;;
62911;SDS011;49111;51.028;4.218;2023-04-09T09:05:37;40.72;;;24.08;;
62911;SDS011;49111;51.028;4.218;2023-04-09T09:10:41;43.90;;;25.48;;
62911;SDS011;49111;51.028;4.218;2023-04-09T09:13:41;38.55;;;22.67;;
62911;SDS011;49111;51.028;4.218;2023-04-09T09:16:13;42.33;;;24.67;;
62911;SDS011;49111;51.028;4.218;2023-04-09T09:18:41;42.17;;;24.90;;
62911;SDS011;49111;51.028;4.218;2023-04-09T09:21:16;43.30;;;25.33;;
62911;SDS011;49111;51.028;4.218;2023-04-09T09:23:46;40.13;;;23.08;;
62911;SDS011;49111;51.028;4.218;2023-04-09T09:26:18;40.55;;;23.55;;
62911;SDS011;49111;51.028;4.218;2023-04-09T09:28:53;36.00;;;22.85;;
62911;SDS011;49111;51.028;4.218;2023-04-09T09:31:23;40.08;;;24.05;;
62911;SDS011;49111;51.028;4.218;2023-04-09T09:33:50;35.67;;;22.15;;
62911;SDS011;49111;51.028;4.218;2023-04-09T09:36:32;43.75;;;24.48;;
62911;SDS011;49111;51.028;4.218;2023-04-09T09:38:59;41.88;;;25.42;;
62911;SDS011;49111;51.028;4.218;2023-04-09T09:41:27;43.78;;;25.17;;
62911;SDS011;49111;51.028;4.218;2023-04-09T09:43:53;37.67;;;23.25;;
62911;SDS011;49111;51.028;4.218;2023-04-09T09:46:20;43.17;;;25.08;;
62911;SDS011;49111;51.028;4.218;2023-04-09T09:48:48;39.05;;;24.27;;
62911;SDS011;49111;51.028;4.218;2023-04-09T09:51:15;36.65;;;23.33;;
62911;SDS011;49111;51.028;4.218;2023-04-09T09:53:44;39.38;;;22.90;;
62911;SDS011;49111;51.028;4.218;2023-04-09T09:56:13;39.30;;;23.70;;
62911;SDS011;49111;51.028;4.218;2023-04-09T09:58:44;42.65;;;24.88;;
62911;SDS011;49111;51.028;4.218;2023-04-09T10:01:17;36.63;;;23.52;;
62911;SDS011;49111;51.028;4.218;2023-04-09T10:03:46;43.47;;;23.13;;
62911;SDS011;49111;51.028;4.218;2023-04-09T10:06:15;39.00;;;23.23;;
62911;SDS011;49111;51.028;4.218;2023-04-09T10:08:42;36.92;;;22.50;;
62911;SDS011;49111;51.028;4.218;2023-04-09T10:11:09;35.65;;;21.10;;
62911;SDS011;49111;51.028;4.218;2023-04-09T10:13:42;37.92;;;22.85;;
62911;SDS011;49111;51.028;4.218;2023-04-09T10:16:15;37.38;;;22.30;;
62911;SDS011;49111;51.028;4.218;2023-04-09T10:18:42;37.50;;;18.88;;
62911;SDS011;49111;51.028;4.218;2023-04-09T10:21:13;35.70;;;21.50;;
62911;SDS011;49111;51.028;4.218;2023-04-09T10:24:03;34.88;;;20.73;;
62911;SDS011;49111;51.028;4.218;2023-04-09T10:26:34;34.75;;;21.23;;
62911;SDS011;49111;51.028;4.218;2023-04-09T10:29:11;34.42;;;21.40;;
62911;SDS011;49111;51.028;4.218;2023-04-09T10:32:02;35.72;;;21.25;;
62911;SDS011;49111;51.028;4.218;2023-04-09T10:34:33;34.40;;;20.65;;
62911;SDS011;49111;51.028;4.218;2023-04-09T10:37:03;37.42;;;21.58;;
62911;SDS011;49111;51.028;4.218;2023-04-09T10:39:38;33.15;;;19.63;;
62911;SDS011;49111;51.028;4.218;2023-04-09T10:42:10;33.40;;;20.40;;
62911;SDS011;49111;51.028;4.218;2023-04-09T10:44:42;36.33;;;21.60;;
62911;SDS011;49111;51.028;4.218;2023-04-09T10:47:08;31.20;;;19.58;;
62911;SDS011;49111;51.028;4.218;2023-04-09T10:49:36;33.95;;;20.38;;
62911;SDS011;49111;51.028;4.218;2023-04-09T10:52:09;32.88;;;20.40;;
62911;SDS011;49111;51.028;4.218;2023-04-09T10:57:13;34.22;;;19.50;;
62911;SDS011;49111;51.028;4.218;2023-04-09T10:59:59;33.15;;;20.50;;
62911;SDS011;49111;51.028;4.218;2023-04-09T11:07:52;33.20;;;19.10;;
62911;SDS011;49111;51.028;4.218;2023-04-09T11:10:32;30.85;;;20.27;;
62911;SDS011;49111;51.028;4.218;2023-04-09T11:12:58;37.67;;;25.48;;
62911;SDS011;49111;51.028;4.218;2023-04-09T11:15:25;34.10;;;20.83;;
62911;SDS011;49111;51.028;4.218;2023-04-09T11:17:51;31.60;;;20.30;;
62911;SDS011;49111;51.028;4.218;2023-04-09T11:20:20;34.80;;;23.98;;
62911;SDS011;49111;51.028;4.218;2023-04-09T11:22:48;33.17;;;20.60;;
62911;SDS011;49111;51.028;4.218;2023-04-09T11:25:22;30.05;;;18.73;;
62911;SDS011;49111;51.028;4.218;2023-04-09T11:27:53;28.75;;;19.15;;
62911;SDS011;49111;51.028;4.218;2023-04-09T11:30:19;31.95;;;19.73;;
62911;SDS011;49111;51.028;4.218;2023-04-09T11:32:47;31.63;;;20.30;;
62911;SDS011;49111;51.028;4.218;2023-04-09T11:35:14;28.88;;;18.20;;
62911;SDS011;49111;51.028;4.218;2023-04-09T11:37:45;27.67;;;17.92;;
62911;SDS011;49111;51.028;4.218;2023-04-09T11:40:15;28.02;;;17.98;;
62911;SDS011;49111;51.028;4.218;2023-04-09T11:42:42;25.05;;;16.05;;
62911;SDS011;49111;51.028;4.218;2023-04-09T11:45:09;27.25;;;17.27;;
62911;SDS011;49111;51.028;4.218;2023-04-09T11:47:37;30.73;;;18.63;;
62911;SDS011;49111;51.028;4.218;2023-04-09T11:50:06;25.52;;;16.58;;
62911;SDS011;49111;51.028;4.218;2023-04-09T11:52:32;26.25;;;16.80;;
62911;SDS011;49111;51.028;4.218;2023-04-09T11:55:03;26.13;;;16.23;;
62911;SDS011;49111;51.028;4.218;2023-04-09T12:00:07;22.75;;;14.05;;
62911;SDS011;49111;51.028;4.218;2023-04-09T12:02:36;22.45;;;12.70;;
62911;SDS011;49111;51.028;4.218;2023-04-09T12:05:05;19.23;;;12.65;;
62911;SDS011;49111;51.028;4.218;2023-04-09T12:07:36;15.90;;;10.80;;
62911;SDS011;49111;51.028;4.218;2023-04-09T12:10:08;32.00;;;21.77;;
62911;SDS011;49111;51.028;4.218;2023-04-09T12:12:44;15.45;;;10.38;;
62911;SDS011;49111;51.028;4.218;2023-04-09T12:17:53;17.40;;;11.57;;
62911;SDS011;49111;51.028;4.218;2023-04-09T12:22:58;18.45;;;12.05;;
62911;SDS011;49111;51.028;4.218;2023-04-09T12:25:26;19.60;;;12.85;;
62911;SDS011;49111;51.028;4.218;2023-04-09T12:27:53;20.42;;;12.05;;
62911;SDS011;49111;51.028;4.218;2023-04-09T12:30:20;18.45;;;12.20;;
62911;SDS011;49111;51.028;4.218;2023-04-09T12:32:47;19.80;;;12.48;;
62911;SDS011;49111;51.028;4.218;2023-04-09T12:35:13;17.95;;;11.63;;
62911;SDS011;49111;51.028;4.218;2023-04-09T12:37:40;20.58;;;14.27;;
62911;SDS011;49111;51.028;4.218;2023-04-09T12:40:07;20.80;;;13.23;;
62911;SDS011;49111;51.028;4.218;2023-04-09T12:42:33;18.48;;;12.13;;
62911;SDS011;49111;51.028;4.218;2023-04-09T12:44:59;22.48;;;13.70;;
62911;SDS011;49111;51.028;4.218;2023-04-09T12:47:25;37.25;;;23.92;;
62911;SDS011;49111;51.028;4.218;2023-04-09T12:49:52;22.52;;;15.43;;
62911;SDS011;49111;51.028;4.218;2023-04-09T12:52:19;15.80;;;10.95;;
62911;SDS011;49111;51.028;4.218;2023-04-09T12:54:46;24.25;;;15.77;;
62911;SDS011;49111;51.028;4.218;2023-04-09T12:57:12;18.58;;;10.00;;
62911;SDS011;49111;51.028;4.218;2023-04-09T12:59:38;16.63;;;11.45;;
62911;SDS011;49111;51.028;4.218;2023-04-09T13:02:04;29.27;;;21.23;;
62911;SDS011;49111;51.028;4.218;2023-04-09T13:04:30;21.52;;;19.30;;
62911;SDS011;49111;51.028;4.218;2023-04-09T13:06:56;15.25;;;10.18;;
62911;SDS011;49111;51.028;4.218;2023-04-09T13:09:22;13.48;;;8.85;;
62911;SDS011;49111;51.028;4.218;2023-04-09T13:11:48;13.05;;;9.95;;
62911;SDS011;49111;51.028;4.218;2023-04-09T13:14:14;14.85;;;10.52;;
62911;SDS011;49111;51.028;4.218;2023-04-09T13:16:40;14.50;;;9.75;;
62911;SDS011;49111;51.028;4.218;2023-04-09T13:19:06;13.88;;;9.32;;
62911;SDS011;49111;51.028;4.218;2023-04-09T13:21:33;14.90;;;9.27;;
62911;SDS011;49111;51.028;4.218;2023-04-09T13:24:00;12.30;;;9.05;;
62911;SDS011;49111;51.028;4.218;2023-04-09T13:26:26;16.30;;;10.85;;
62911;SDS011;49111;51.028;4.218;2023-04-09T13:28:52;16.90;;;10.30;;
62911;SDS011;49111;51.028;4.218;2023-04-09T13:31:19;15.65;;;10.80;;
62911;SDS011;49111;51.028;4.218;2023-04-09T13:33:45;15.52;;;10.43;;
62911;SDS011;49111;51.028;4.218;2023-04-09T13:36:10;12.05;;;8.15;;
62911;SDS011;49111;51.028;4.218;2023-04-09T13:38:36;13.35;;;8.32;;
62911;SDS011;49111;51.028;4.218;2023-04-09T13:41:02;29.92;;;24.58;;
62911;SDS011;49111;51.028;4.218;2023-04-09T13:43:29;35.47;;;29.02;;
62911;SDS011;49111;51.028;4.218;2023-04-09T13:45:54;13.07;;;7.85;;
62911;SDS011;49111;51.028;4.218;2023-04-09T13:48:22;14.15;;;9.50;;
62911;SDS011;49111;51.028;4.218;2023-04-09T13:50:48;13.82;;;9.35;;
62911;SDS011;49111;51.028;4.218;2023-04-09T13:53:14;14.02;;;9.50;;
62911;SDS011;49111;51.028;4.218;2023-04-09T13:55:41;22.67;;;18.13;;
62911;SDS011;49111;51.028;4.218;2023-04-09T13:58:10;45.97;;;33.25;;
62911;SDS011;49111;51.028;4.218;2023-04-09T14:00:36;13.40;;;8.50;;
62911;SDS011;49111;51.028;4.218;2023-04-09T14:03:02;14.00;;;8.52;;
62911;SDS011;49111;51.028;4.218;2023-04-09T14:05:29;12.60;;;8.02;;
62911;SDS011;49111;51.028;4.218;2023-04-09T14:07:56;14.90;;;8.68;;
62911;SDS011;49111;51.028;4.218;2023-04-09T14:10:22;12.70;;;8.38;;
62911;SDS011;49111;51.028;4.218;2023-04-09T14:12:48;14.93;;;9.73;;
62911;SDS011;49111;51.028;4.218;2023-04-09T14:15:14;12.85;;;8.50;;
62911;SDS011;49111;51.028;4.218;2023-04-09T14:17:42;12.90;;;9.38;;
62911;SDS011;49111;51.028;4.218;2023-04-09T14:20:08;14.85;;;10.45;;
62911;SDS011;49111;51.028;4.218;2023-04-09T14:22:34;13.20;;;7.50;;
62911;SDS011;49111;51.028;4.218;2023-04-09T14:25:00;10.73;;;7.00;;
62911;SDS011;49111;51.028;4.218;2023-04-09T14:27:25;10.90;;;6.40;;
62911;SDS011;49111;51.028;4.218;2023-04-09T14:29:51;10.75;;;6.53;;
62911;SDS011;49111;51.028;4.218;2023-04-09T14:32:17;13.32;;;8.85;;
62911;SDS011;49111;51.028;4.218;2023-04-09T14:34:44;13.32;;;8.13;;
62911;SDS011;49111;51.028;4.218;2023-04-09T14:37:10;13.05;;;8.10;;
62911;SDS011;49111;51.028;4.218;2023-04-09T14:39:36;13.57;;;8.57;;
62911;SDS011;49111;51.028;4.218;2023-04-09T14:42:02;12.63;;;9.07;;
62911;SDS011;49111;51.028;4.218;2023-04-09T14:44:29;13.02;;;8.52;;
62911;SDS011;49111;51.028;4.218;2023-04-09T14:46:55;12.93;;;8.50;;
62911;SDS011;49111;51.028;4.218;2023-04-09T14:49:22;12.20;;;8.30;;
62911;SDS011;49111;51.028;4.218;2023-04-09T14:51:48;14.27;;;9.10;;
62911;SDS011;49111;51.028;4.218;2023-04-09T14:54:14;14.93;;;9.95;;
62911;SDS011;49111;51.028;4.218;2023-04-09T14:56:40;13.32;;;9.57;;
62911;SDS011;49111;51.028;4.218;2023-04-09T14:59:06;13.60;;;9.85;;
62911;SDS011;49111;51.028;4.218;2023-04-09T15:01:32;14.15;;;9.45;;